»·PEaware :: JUS326 KSEA-KEUG

JUS326 :: KSEA-KEUG

FLIGHT INFORMATION

Flight Status: Arrived
Operator:
USA Jet
More flights by this operator :: More flights under this callsign
Pilot: Erik S. (3779)
Aircraft: BOEING 737-300
(B733)
More flights by this aircraft type
Origin: KSEA Seattle-Tacoma Intl
United States
Destination: KEUG Mahlon Sweet
United States
More flights between these airports :: More routes between these airports
Route: HAROB6 FEPOT CVO
File this flight plan on PilotEdge
Remarks:
Altitude:
(Current/Filed)
24,000ft
Speed:
(Current/Filed)
400kts
Departed: 18-Dec-17 08:34 AM
Arrived: 18-Dec-17 09:20 AM
Distance/Time
Traveled:
203nm/0:46
Distance/Time
To Go:
Arrived

Flight Plot

Page will automatically refresh every two minutes.

Flight plan parsing failed; only flown route is shown


Map Options




Map Legend


Flown Route
Filed Route
Departure Airport
Arrival Airport
Navaid (VOR, NDB)
Fix

Horizontal Profiles

Position Reports

Time Latitude Longitude Heading Altitude Ground
Speed
18-Dec-17 08:27 47.462642 -122.302838 359 440ft 0kts
18-Dec-17 08:28 47.462642 -122.302838 359 440ft 0kts
18-Dec-17 08:29 47.462642 -122.302838 359 440ft 0kts
18-Dec-17 08:30 47.462642 -122.302838 359 440ft 0kts
18-Dec-17 08:31 47.462642 -122.302838 359 440ft 0kts
18-Dec-17 08:32 47.462642 -122.302838 359 440ft 0kts
18-Dec-17 08:33 47.462642 -122.302838 359 440ft 0kts
18-Dec-17 08:34 47.462481 -122.302837 359 440ft 0kts
18-Dec-17 08:35 47.462082 -122.302481 268 440ft 0kts
18-Dec-17 08:36 47.462093 -122.302328 256 440ft 0kts
18-Dec-17 08:37 47.461910 -122.303545 259 440ft 14kts
18-Dec-17 08:38 47.463839 -122.306144 270 440ft 0kts
18-Dec-17 08:39 47.463839 -122.306154 270 440ft 0kts
18-Dec-17 08:40 47.459161 -122.307834 180 440ft 89kts
18-Dec-17 08:41 47.415303 -122.306154 179 2052ft 191kts
18-Dec-17 08:42 47.355305 -122.301586 179 4157ft 246kts
18-Dec-17 08:43 47.299331 -122.343221 260 6966ft 248kts
18-Dec-17 08:44 47.307303 -122.444824 270 9909ft 253kts
18-Dec-17 08:45 47.310131 -122.558068 271 11668ft 295kts
18-Dec-17 08:46 47.313418 -122.679527 272 14263ft 299kts
18-Dec-17 08:47 47.307081 -122.802036 251 15008ft 312kts
18-Dec-17 08:48 47.275291 -122.920462 251 15239ft 315kts
18-Dec-17 08:49 47.240602 -123.038285 237 17428ft 324kts
18-Dec-17 08:50 47.167843 -123.123442 224 19221ft 342kts
18-Dec-17 08:51 47.090559 -123.206480 215 20959ft 358kts
18-Dec-17 08:52 46.985316 -123.222384 190 22395ft 397kts
18-Dec-17 08:53 46.875196 -123.225439 189 23724ft 405kts
18-Dec-17 08:54 46.762118 -123.228847 188 24073ft 431kts
18-Dec-17 08:55 46.639733 -123.232420 188 24144ft 445kts
18-Dec-17 08:56 46.516395 -123.236044 188 24135ft 444kts
18-Dec-17 08:57 46.393426 -123.239627 188 24129ft 444kts
18-Dec-17 08:58 46.290719 -123.242626 188 24158ft 444kts
18-Dec-17 08:59 46.146706 -123.246828 188 24179ft 444kts
18-Dec-17 09:00 46.023583 -123.250402 188 24176ft 444kts
18-Dec-17 09:01 45.920589 -123.253382 188 24177ft 444kts
18-Dec-17 09:02 45.778145 -123.257536 188 24187ft 444kts
18-Dec-17 09:03 45.675543 -123.260818 188 24235ft 448kts
18-Dec-17 09:04 45.531370 -123.265142 188 23181ft 433kts
18-Dec-17 09:05 45.439281 -123.267694 188 21154ft 404kts
18-Dec-17 09:06 45.332856 -123.270632 189 18974ft 370kts
18-Dec-17 09:07 45.232858 -123.273440 189 16775ft 349kts
18-Dec-17 09:08 45.136504 -123.276158 189 15923ft 345kts
18-Dec-17 09:09 45.041228 -123.278789 188 13824ft 338kts
18-Dec-17 09:10 44.949058 -123.281333 186 11478ft 328kts
18-Dec-17 09:11 44.861582 -123.283690 186 9991ft 290kts
18-Dec-17 09:12 44.785751 -123.285798 185 8636ft 264kts
18-Dec-17 09:13 44.714075 -123.287787 184 6899ft 255kts
18-Dec-17 09:14 44.644713 -123.289688 182 5144ft 248kts
18-Dec-17 09:15 44.577769 -123.291508 181 3960ft 220kts
18-Dec-17 09:16 44.519979 -123.293082 181 3976ft 205kts
18-Dec-17 09:17 44.469330 -123.268050 151 4015ft 189kts
18-Dec-17 09:18 44.424386 -123.231076 153 3971ft 187kts
18-Dec-17 09:19 44.374427 -123.220071 180 2788ft 184kts
18-Dec-17 09:20 44.323585 -123.222110 178 1953ft 182kts
18-Dec-17 09:21 44.272691 -123.221295 177 1987ft 184kts
18-Dec-17 09:22 44.223506 -123.220505 177 2033ft 164kts
18-Dec-17 09:23 44.183973 -123.219918 177 1357ft 132kts
18-Dec-17 09:24 44.147470 -123.219323 177 642ft 131kts
18-Dec-17 09:25 44.118200 -123.218882 177 381ft 53kts
18-Dec-17 09:26 44.114527 -123.216850 356 381ft 15kts
18-Dec-17 09:27 44.117123 -123.215782 321 381ft 1kts
18-Dec-17 09:28 44.117169 -123.215832 321 381ft 0kts
18-Dec-17 09:29 44.117169 -123.215832 321 381ft 0kts
18-Dec-17 09:30 44.117169 -123.215832 321 381ft 0kts

Navigation Log

Ident Type
Flight plan parsing failed, navigation log unavailable